キエフ/ボリースピリ の空港の天気 - METARとTAF

ボリースピリ国際空港(キエフ) ( UKBB / KBP ) - ウクライナ ボリスピリ (キエフ近郊)
飛行場実況気象(Metar)
観測時間04/27 07:30 EEST (04/27 04:30 UTC)
風向・風速不定 1m/s
視程10km以上
天気現象
なし
気温11℃
湿度94%
気圧1013hPa
METARUKBB 270430Z VRB01MPS CAVOK 11/10 Q1013 R18L/CLRD// R18R/190060 NOSIG
過去の天気等 Google飛行場航空写真 Wunderground天気予報

過去48時間のMETAR

飛行場予報(TAF)
発表時間: 4/27 02:00 EEST (4/26 23:00 UTC)
予報対象時間: 27日3時 EEST ~ 28日3時 EEST
風向・風速南 3m/s 瞬間風速 8m/s
視程10km以上
全天の8割程度の雲 雲底高度 910m
27日3時 EEST ~ 27日9時 EEST に一時的に
風向・風速南西 6m/s 瞬間風速 13m/s
視程2,000m
天気現象しゅう雨 もや
全天の8割程度の雲 雲底高度 150m
全天の4割程度の積乱雲 雲底高度 760m
27日3時 EEST ~ 27日9時 EEST に 確率 40% で一時的に
風向・風速不定 9m/s 瞬間風速 15m/s
天気現象弱い雷雨
全天の8割程度の積乱雲 雲底高度 610m
27日9時 EEST ~ 27日15時 EEST に一時的に
天気現象弱いしゅう雨
全天の4割程度の雲 雲底高度 210m
全天の4割程度の積乱雲 雲底高度 760m
27日15時 EEST ~ 27日17時 EEST に徐々に
風向・風速西北西 4m/s 瞬間風速 9m/s
TAF UKBB 262300Z 2700/2724 18003G08MPS 9999 BKN030
TEMPO 2700/2706 23006G13MPS 2000 SHRA BR BKN005 SCT025CB
PROB40 TEMPO 2700/2706 VRB09G15MPS -TSRA BKN020CB
TEMPO 2706/2712 -SHRA SCT007 SCT025CB
BECMG 2712/2714 30004G09MPS